createdAt,value
2018-08-08T00:01:41.657Z,8.27
2018-08-08T00:04:08.887Z,7.57
2018-08-08T00:06:36.131Z,7.03
2018-08-08T00:09:04.067Z,8.93
2018-08-08T00:11:31.295Z,8.30
2018-08-08T00:13:58.878Z,7.93
2018-08-08T00:16:26.099Z,7.30
2018-08-08T00:18:53.371Z,7.73
2018-08-08T00:21:20.577Z,7.73
2018-08-08T00:23:47.850Z,7.53
2018-08-08T00:26:15.073Z,8.00
2018-08-08T00:28:42.320Z,8.70
2018-08-08T00:31:09.576Z,25.43
2018-08-08T00:33:36.824Z,20.97
2018-08-08T00:36:04.292Z,16.60
2018-08-08T00:38:31.545Z,15.37
2018-08-08T00:40:58.785Z,11.17
2018-08-08T00:43:26.420Z,10.97
2018-08-08T00:45:53.705Z,9.07
2018-08-08T00:48:21.352Z,8.67
2018-08-08T00:50:48.646Z,11.53
2018-08-08T00:53:15.979Z,14.00
2018-08-08T00:55:43.233Z,16.00
2018-08-08T00:58:10.480Z,15.10
2018-08-08T01:00:37.843Z,13.93
2018-08-08T01:03:05.109Z,16.40
2018-08-08T01:05:32.427Z,12.07
2018-08-08T01:07:59.683Z,14.27
2018-08-08T01:10:26.926Z,26.70
2018-08-08T01:12:54.200Z,19.10
2018-08-08T01:15:21.457Z,13.03
2018-08-08T01:17:48.703Z,15.23
2018-08-08T01:20:16.467Z,8.43
2018-08-08T01:22:43.923Z,10.10
2018-08-08T01:25:12.295Z,12.90
2018-08-08T01:27:39.548Z,16.33
2018-08-08T01:30:08.317Z,11.03
2018-08-08T01:32:35.732Z,16.53
2018-08-08T01:35:02.980Z,11.90
2018-08-08T01:37:30.211Z,14.37
2018-08-08T01:39:57.455Z,12.37
2018-08-08T01:42:24.699Z,31.30
2018-08-08T01:44:52.033Z,12.63
2018-08-08T01:47:19.300Z,11.83
2018-08-08T01:49:46.553Z,12.37
2018-08-08T01:52:13.799Z,13.37
2018-08-08T01:54:41.072Z,13.80
2018-08-08T01:57:08.307Z,12.50
2018-08-08T01:59:35.568Z,15.33
2018-08-08T02:02:02.836Z,9.93
2018-08-08T02:04:30.068Z,12.47
2018-08-08T02:06:57.315Z,12.37
2018-08-08T02:09:24.556Z,15.80
2018-08-08T02:11:51.835Z,10.43
2018-08-08T02:14:19.079Z,9.70
2018-08-08T02:16:46.331Z,10.27
2018-08-08T02:19:13.680Z,12.57
2018-08-08T02:21:41.040Z,18.90
2018-08-08T02:24:08.881Z,18.60
2018-08-08T02:26:36.121Z,20.13
2018-08-08T02:29:03.447Z,25.97
2018-08-08T02:31:30.688Z,18.07
2018-08-08T02:33:57.949Z,18.43
2018-08-08T02:36:25.191Z,9.27
2018-08-08T02:38:52.415Z,12.83
2018-08-08T02:41:19.975Z,17.43
2018-08-08T02:43:47.229Z,11.83
2018-08-08T02:46:14.493Z,19.00
2018-08-08T02:48:41.725Z,18.70
2018-08-08T02:51:08.963Z,9.77
2018-08-08T02:53:36.224Z,15.23
2018-08-08T02:56:03.488Z,11.20
2018-08-08T02:58:30.712Z,12.70
2018-08-08T03:00:57.988Z,18.00
2018-08-08T03:03:25.213Z,16.90
2018-08-08T03:05:52.464Z,9.53
2018-08-08T03:08:19.759Z,10.10
2018-08-08T03:10:46.995Z,11.03
2018-08-08T03:13:14.244Z,8.07
2018-08-08T03:15:41.471Z,9.40
2018-08-08T03:18:08.731Z,11.77
2018-08-08T03:20:35.988Z,13.50
2018-08-08T03:23:03.455Z,11.77
2018-08-08T03:25:30.694Z,15.23
2018-08-08T03:27:57.969Z,17.80
2018-08-08T03:30:25.222Z,17.93
2018-08-08T03:32:52.500Z,9.27
2018-08-08T03:35:20.539Z,14.40
2018-08-08T03:37:47.967Z,15.47
2018-08-08T03:40:15.761Z,19.70
2018-08-08T03:42:43.316Z,13.93
2018-08-08T03:45:11.218Z,14.47
2018-08-08T03:47:38.824Z,21.13
2018-08-08T03:50:06.753Z,24.03
2018-08-08T03:52:34.124Z,20.17
2018-08-08T03:55:02.014Z,16.50
2018-08-08T03:57:29.213Z,12.40
2018-08-08T03:59:56.451Z,19.07
2018-08-08T04:02:23.727Z,16.93
2018-08-08T04:04:50.955Z,16.97
2018-08-08T04:07:18.200Z,21.87
2018-08-08T04:09:45.655Z,14.63
2018-08-08T04:12:12.907Z,15.13
2018-08-08T04:14:40.164Z,16.60
2018-08-08T04:17:11.733Z,20.57
2018-08-08T04:19:39.059Z,18.67
2018-08-08T04:22:06.523Z,17.90
2018-08-08T04:24:33.771Z,20.40
2018-08-08T04:27:01.016Z,29.07
2018-08-08T04:29:28.274Z,12.40
2018-08-08T04:31:55.523Z,19.40
2018-08-08T04:34:22.767Z,19.00
2018-08-08T04:36:50.030Z,18.73
2018-08-08T04:39:17.255Z,16.23
2018-08-08T04:41:44.515Z,16.63
2018-08-08T04:44:11.766Z,30.63
2018-08-08T04:46:39.132Z,23.27
2018-08-08T04:49:06.415Z,24.97
2018-08-08T04:51:33.649Z,21.83
2018-08-08T04:54:00.900Z,32.33
2018-08-08T04:56:28.164Z,28.50
2018-08-08T04:58:55.489Z,23.73
2018-08-08T05:01:22.746Z,22.30
2018-08-08T05:03:50.004Z,21.90
2018-08-08T05:06:17.271Z,25.57
2018-08-08T05:08:44.620Z,23.40
2018-08-08T05:11:11.890Z,26.57
2018-08-08T05:13:39.320Z,15.20
2018-08-08T05:16:06.588Z,23.10
2018-08-08T05:18:33.826Z,17.57
2018-08-08T05:21:01.077Z,16.53
2018-08-08T05:23:28.307Z,21.40
2018-08-08T05:25:55.574Z,26.10
2018-08-08T05:28:22.845Z,16.10
2018-08-08T05:30:50.116Z,20.03
2018-08-08T05:33:17.340Z,16.40
2018-08-08T05:35:44.611Z,18.03
2018-08-08T05:38:11.928Z,16.90
2018-08-08T05:40:39.301Z,15.00
2018-08-08T05:43:06.639Z,15.70
2018-08-08T05:45:33.876Z,12.60
2018-08-08T05:48:01.165Z,16.40
2018-08-08T05:50:28.655Z,11.13
2018-08-08T05:52:57.703Z,11.50
2018-08-08T05:55:24.957Z,11.50
2018-08-08T05:57:52.241Z,17.07
2018-08-08T06:00:21.158Z,15.10
2018-08-08T06:02:48.459Z,11.80
2018-08-08T06:05:16.139Z,14.87
2018-08-08T06:07:44.138Z,17.40
2018-08-08T06:10:11.446Z,12.93
2018-08-08T06:12:39.363Z,9.80
2018-08-08T06:15:07.792Z,10.97
2018-08-08T06:17:35.119Z,15.60
2018-08-08T06:20:02.696Z,11.87
2018-08-08T06:22:29.936Z,12.37
2018-08-08T06:24:57.326Z,12.70
2018-08-08T06:27:24.785Z,10.10
2018-08-08T06:29:52.016Z,13.97
2018-08-08T06:32:19.351Z,10.83
2018-08-08T06:34:46.617Z,14.93
2018-08-08T06:37:13.868Z,10.70
2018-08-08T06:39:41.117Z,10.37
2018-08-08T06:42:08.395Z,14.73
2018-08-08T06:44:35.616Z,9.63
2018-08-08T06:47:02.879Z,9.87
2018-08-08T06:49:30.111Z,8.20
2018-08-08T06:51:57.380Z,9.37
2018-08-08T06:54:24.651Z,12.73
2018-08-08T06:56:52.503Z,10.77
2018-08-08T06:59:19.755Z,8.43
2018-08-08T07:01:47.028Z,11.53
2018-08-08T07:04:14.257Z,8.07
2018-08-08T07:06:41.499Z,9.20
2018-08-08T07:09:09.796Z,9.00
2018-08-08T07:11:37.044Z,10.67
2018-08-08T07:14:04.334Z,12.60
2018-08-08T07:16:31.964Z,9.43
2018-08-08T07:18:59.175Z,9.30
2018-08-08T07:21:26.465Z,9.23
2018-08-08T07:23:53.699Z,8.73
2018-08-08T07:26:20.932Z,10.07
2018-08-08T07:28:48.325Z,9.13
2018-08-08T07:31:15.577Z,10.97
2018-08-08T07:33:42.887Z,12.77
2018-08-08T07:36:10.169Z,16.17
2018-08-08T07:38:37.423Z,12.63
2018-08-08T07:41:04.664Z,10.50
2018-08-08T07:43:31.916Z,11.27
2018-08-08T07:45:59.189Z,15.10
2018-08-08T07:48:26.425Z,12.07
2018-08-08T07:50:53.703Z,11.33
2018-08-08T07:53:20.927Z,14.93
2018-08-08T07:55:48.192Z,13.53
2018-08-08T07:58:15.675Z,14.13
2018-08-08T08:00:42.708Z,12.60
2018-08-08T08:03:09.959Z,13.27
2018-08-08T08:05:37.287Z,13.60
2018-08-08T08:08:04.528Z,12.73
2018-08-08T08:10:31.807Z,13.00
2018-08-08T08:12:59.106Z,12.90
2018-08-08T08:15:26.283Z,12.43
2018-08-08T08:17:53.565Z,13.63
2018-08-08T08:20:20.824Z,11.93
2018-08-08T08:22:49.242Z,13.57
2018-08-08T08:25:16.775Z,12.17
2018-08-08T08:27:44.004Z,12.23
2018-08-08T08:30:13.124Z,15.70
2018-08-08T08:32:40.682Z,12.13
2018-08-08T08:35:08.010Z,13.13
2018-08-08T08:37:35.443Z,12.10
2018-08-08T08:40:02.763Z,13.40
2018-08-08T08:42:30.048Z,11.90
2018-08-08T08:44:57.417Z,12.30
2018-08-08T08:47:24.663Z,15.50
2018-08-08T08:49:52.023Z,13.80
2018-08-08T08:52:19.322Z,13.93
2018-08-08T08:54:46.575Z,13.77
2018-08-08T08:57:13.861Z,17.53
2018-08-08T08:59:41.223Z,12.70
2018-08-08T09:02:08.532Z,13.03
2018-08-08T09:04:35.788Z,12.37
2018-08-08T09:07:03.093Z,13.20
2018-08-08T09:09:30.359Z,13.33
2018-08-08T09:11:57.612Z,12.67
2018-08-08T09:14:24.868Z,14.87
2018-08-08T09:16:52.098Z,12.57
2018-08-08T09:19:19.364Z,13.70
2018-08-08T09:21:46.618Z,13.20
2018-08-08T09:24:13.958Z,14.20
2018-08-08T09:26:41.156Z,12.83
2018-08-08T09:29:08.405Z,18.13
2018-08-08T09:31:36.184Z,12.17
2018-08-08T09:34:03.482Z,12.87
2018-08-08T09:36:30.732Z,13.60
2018-08-08T09:38:58.016Z,13.03
2018-08-08T09:41:25.261Z,12.67
2018-08-08T09:43:52.497Z,12.63
2018-08-08T09:46:19.756Z,12.80
2018-08-08T09:48:47.009Z,14.87
2018-08-08T09:51:14.281Z,12.80
2018-08-08T09:53:41.535Z,13.10
2018-08-08T09:56:08.875Z,14.93
2018-08-08T09:58:36.172Z,14.47
2018-08-08T10:01:08.834Z,15.97
2018-08-08T10:03:38.094Z,15.77
2018-08-08T10:06:05.433Z,12.70
2018-08-08T10:08:32.736Z,14.40
2018-08-08T10:11:00.033Z,13.27
2018-08-08T10:13:27.305Z,12.67
2018-08-08T10:15:54.556Z,12.53
2018-08-08T10:18:22.397Z,10.90
2018-08-08T10:20:49.764Z,10.80
2018-08-08T10:23:17.069Z,10.20
2018-08-08T10:25:44.433Z,8.93
2018-08-08T10:28:11.812Z,7.50
2018-08-08T10:30:39.092Z,8.23
2018-08-08T10:33:06.384Z,8.17
2018-08-08T10:35:33.684Z,7.10
2018-08-08T10:38:01.102Z,10.67
2018-08-08T10:40:28.356Z,7.67
2018-08-08T10:42:55.634Z,9.30
2018-08-08T10:45:22.887Z,10.40
2018-08-08T10:47:50.157Z,7.53
2018-08-08T10:50:17.396Z,7.80
2018-08-08T10:52:44.654Z,8.97
2018-08-08T10:55:11.904Z,8.67
2018-08-08T10:57:39.187Z,6.50
2018-08-08T11:00:07.716Z,9.63
2018-08-08T11:02:34.972Z,6.93
2018-08-08T11:05:02.228Z,8.70
2018-08-08T11:07:29.503Z,8.80
2018-08-08T11:09:56.772Z,8.47
2018-08-08T11:12:24.087Z,8.10
2018-08-08T11:14:51.364Z,7.40
2018-08-08T11:17:18.620Z,6.67
2018-08-08T11:19:45.875Z,7.40
2018-08-08T11:22:13.128Z,10.40
2018-08-08T11:24:40.375Z,7.27
2018-08-08T11:27:07.717Z,7.53
2018-08-08T11:29:34.980Z,8.67
2018-08-08T11:32:02.241Z,11.30
2018-08-08T11:34:29.521Z,7.93
2018-08-08T11:36:56.943Z,11.60
2018-08-08T11:39:24.268Z,11.77
2018-08-08T11:41:51.535Z,9.77
2018-08-08T11:44:19.337Z,10.10
2018-08-08T11:46:46.764Z,7.77
2018-08-08T11:49:13.921Z,18.77
2018-08-08T11:51:41.175Z,6.70
2018-08-08T11:54:08.427Z,8.23
2018-08-08T11:56:35.740Z,8.57
2018-08-08T11:59:03.032Z,6.30
2018-08-08T12:01:30.286Z,6.63
2018-08-08T12:03:57.615Z,6.73
2018-08-08T12:06:25.267Z,6.90
2018-08-08T12:08:52.528Z,6.17
2018-08-08T12:11:19.944Z,6.23
2018-08-08T12:13:47.241Z,10.17
2018-08-08T12:16:14.491Z,5.70
2018-08-08T12:18:41.725Z,6.07
2018-08-08T12:21:09.008Z,6.40
2018-08-08T12:23:36.336Z,10.60
2018-08-08T12:26:03.661Z,7.27
2018-08-08T12:28:30.965Z,6.77
2018-08-08T12:30:58.120Z,6.43
2018-08-08T12:33:25.878Z,6.10
2018-08-08T12:35:53.283Z,6.03
2018-08-08T12:38:22.083Z,6.00
2018-08-08T12:40:49.386Z,8.63
2018-08-08T12:43:16.784Z,7.30
2018-08-08T12:45:44.073Z,7.30
2018-08-08T12:48:11.359Z,8.20
2018-08-08T12:50:38.631Z,6.47
2018-08-08T12:53:06.037Z,5.50
2018-08-08T12:55:33.295Z,6.90
2018-08-08T12:58:00.576Z,10.70
2018-08-08T13:00:27.820Z,6.90
2018-08-08T13:02:55.095Z,6.50
2018-08-08T13:05:22.352Z,6.90
2018-08-08T13:07:49.802Z,8.77
2018-08-08T13:10:17.107Z,5.90
2018-08-08T13:12:44.456Z,6.27
2018-08-08T13:15:11.796Z,6.23
2018-08-08T13:17:39.179Z,6.57
2018-08-08T13:20:07.048Z,6.40
2018-08-08T13:22:35.430Z,7.17
2018-08-08T13:25:02.699Z,7.03
2018-08-08T13:27:29.978Z,7.37
2018-08-08T13:29:57.921Z,8.20
2018-08-08T13:32:25.364Z,7.37
2018-08-08T13:34:52.815Z,8.13
2018-08-08T13:37:20.460Z,7.93
2018-08-08T13:39:47.753Z,7.10
2018-08-08T13:42:15.000Z,7.43
2018-08-08T13:44:42.304Z,7.57
2018-08-08T13:47:09.712Z,7.10
2018-08-08T13:49:36.969Z,7.60
2018-08-08T13:52:04.231Z,10.27
2018-08-08T13:54:31.520Z,7.43
2018-08-08T13:56:58.822Z,6.57
2018-08-08T13:59:26.205Z,7.60
2018-08-08T14:01:53.353Z,6.90
2018-08-08T14:04:20.644Z,6.23
2018-08-08T14:06:47.892Z,8.60
2018-08-08T14:09:15.187Z,7.03
2018-08-08T14:11:42.425Z,7.10
2018-08-08T14:14:09.747Z,6.53
2018-08-08T14:16:37.321Z,6.63
2018-08-08T14:19:04.587Z,6.77
2018-08-08T14:21:31.853Z,8.80
2018-08-08T14:23:59.287Z,7.47
2018-08-08T14:26:26.730Z,7.70
2018-08-08T14:28:54.004Z,7.00
2018-08-08T14:31:21.309Z,7.30
2018-08-08T14:33:48.747Z,6.73
2018-08-08T14:36:16.130Z,6.33
2018-08-08T14:38:43.609Z,6.13
2018-08-08T14:41:10.898Z,5.53
2018-08-08T14:43:38.148Z,7.47
2018-08-08T14:46:05.548Z,9.03
2018-08-08T14:48:32.803Z,6.23
2018-08-08T14:51:00.064Z,5.13
2018-08-08T14:53:27.531Z,5.53
2018-08-08T14:55:54.888Z,6.80
2018-08-08T14:58:22.145Z,6.93
2018-08-08T15:00:49.380Z,5.17
2018-08-08T15:03:16.636Z,5.00
2018-08-08T15:05:43.953Z,5.70
2018-08-08T15:08:11.200Z,5.67
2018-08-08T15:10:38.426Z,6.90
2018-08-08T15:13:05.745Z,9.73
2018-08-08T15:15:32.984Z,6.57
2018-08-08T15:18:00.274Z,5.50
2018-08-08T15:20:27.605Z,5.97
2018-08-08T15:22:54.884Z,6.83
2018-08-08T15:25:22.323Z,7.60
2018-08-08T15:27:50.475Z,5.53
2018-08-08T15:30:17.731Z,5.17
2018-08-08T15:32:45.113Z,6.77
2018-08-08T15:35:13.074Z,7.47
2018-08-08T15:37:40.786Z,6.00
2018-08-08T15:40:08.501Z,5.93
2018-08-08T15:42:35.787Z,6.87
2018-08-08T15:45:03.772Z,5.43
2018-08-08T15:47:31.053Z,5.63
2018-08-08T15:49:58.435Z,5.77
2018-08-08T15:52:25.663Z,5.70
2018-08-08T15:54:52.921Z,5.20
2018-08-08T15:57:20.193Z,5.03
2018-08-08T15:59:47.727Z,5.23
2018-08-08T16:02:14.992Z,5.57
2018-08-08T16:04:42.541Z,5.73
2018-08-08T16:07:09.891Z,4.97
2018-08-08T16:09:37.141Z,5.90
2018-08-08T16:12:04.515Z,5.57
2018-08-08T16:14:31.743Z,6.30
2018-08-08T16:16:59.202Z,4.60
2018-08-08T16:19:26.865Z,6.03
2018-08-08T16:21:54.148Z,7.00
2018-08-08T16:24:21.464Z,6.27
2018-08-08T16:26:48.724Z,8.17
2018-08-08T16:29:15.992Z,3.30
2018-08-08T16:31:43.259Z,6.20
2018-08-08T16:34:10.497Z,8.90
2018-08-08T16:36:38.276Z,3.73
2018-08-08T16:39:07.335Z,4.30
2018-08-08T16:41:34.604Z,3.57
2018-08-08T16:44:01.876Z,3.60
2018-08-08T16:46:29.382Z,4.17
2018-08-08T16:48:56.691Z,3.93
2018-08-08T16:51:24.000Z,3.90
2018-08-08T16:53:51.255Z,3.80
2018-08-08T16:56:18.498Z,3.40
2018-08-08T16:58:45.736Z,3.63
2018-08-08T17:01:12.992Z,4.67
2018-08-08T17:03:40.255Z,3.73
2018-08-08T17:06:07.736Z,2.93
2018-08-08T17:08:35.014Z,5.83
2018-08-08T17:11:02.248Z,9.37
2018-08-08T17:13:29.501Z,4.13
2018-08-08T17:15:57.239Z,4.73
2018-08-08T17:18:24.555Z,2.80
2018-08-08T17:20:51.824Z,4.23
2018-08-08T17:23:19.080Z,3.67
2018-08-08T17:29:02.999Z,4.33
2018-08-08T17:31:30.596Z,3.97
2018-08-08T17:33:58.411Z,4.03
2018-08-08T17:36:27.995Z,4.23
2018-08-08T17:38:55.806Z,6.30
2018-08-08T17:41:23.307Z,3.40
2018-08-08T17:43:52.305Z,3.30
2018-08-08T17:46:20.846Z,3.77
2018-08-08T17:48:48.612Z,3.53
2018-08-08T17:51:16.175Z,3.63
2018-08-08T17:53:43.929Z,5.93
2018-08-08T17:56:11.494Z,3.90
2018-08-08T17:58:38.974Z,3.83
2018-08-08T18:01:06.511Z,4.03
2018-08-08T18:03:34.000Z,5.27
2018-08-08T18:06:01.776Z,3.50
2018-08-08T18:08:29.211Z,3.40
2018-08-08T18:10:56.882Z,2.37
2018-08-08T18:17:01.066Z,2.53
2018-08-08T18:19:28.977Z,6.17
2018-08-08T18:21:58.510Z,5.30
2018-08-08T18:24:26.200Z,3.40
2018-08-08T18:27:06.378Z,2.73
2018-08-08T18:29:33.828Z,2.97
2018-08-08T18:32:01.130Z,2.80
2018-08-08T18:34:28.375Z,4.73
2018-08-08T18:36:55.644Z,5.43
2018-08-08T18:39:22.871Z,5.50
2018-08-08T18:41:50.131Z,4.17
2018-08-08T18:44:17.373Z,4.63
2018-08-08T18:46:44.636Z,3.93
2018-08-08T18:49:12.014Z,5.77
2018-08-08T18:51:39.274Z,4.17
2018-08-08T18:54:06.525Z,4.43
2018-08-08T18:56:33.752Z,3.80
2018-08-08T18:59:01.025Z,2.87
2018-08-08T19:01:28.260Z,4.57
2018-08-08T19:03:55.520Z,2.10
2018-08-08T19:06:22.756Z,5.10
2018-08-08T19:08:50.046Z,3.40
2018-08-08T19:11:17.276Z,4.40
2018-08-08T19:13:44.563Z,4.83
2018-08-08T19:16:11.857Z,5.07
2018-08-08T19:18:39.367Z,3.23
2018-08-08T19:21:06.709Z,3.87
2018-08-08T19:23:33.961Z,5.03
2018-08-08T19:26:02.362Z,5.90
2018-08-08T19:28:29.659Z,3.20
2018-08-08T19:30:57.245Z,1.93
2018-08-08T19:33:24.681Z,4.77
2018-08-08T19:35:52.020Z,3.93
2018-08-08T19:38:19.271Z,2.70
2018-08-08T19:40:46.525Z,6.60
2018-08-08T19:43:13.798Z,6.30
2018-08-08T19:45:41.058Z,3.27
2018-08-08T19:48:08.296Z,3.13
2018-08-08T19:50:40.045Z,2.10
2018-08-08T19:53:07.280Z,1.90
2018-08-08T19:55:34.555Z,4.37
2018-08-08T19:58:01.821Z,2.13
2018-08-08T20:00:29.064Z,4.63
2018-08-08T20:02:56.342Z,3.13
2018-08-08T20:05:23.610Z,2.00
2018-08-08T20:07:50.862Z,2.20
2018-08-08T20:10:18.174Z,5.60
2018-08-08T20:12:45.417Z,5.60
2018-08-08T20:15:12.651Z,4.17
2018-08-08T20:17:39.928Z,1.90
2018-08-08T20:20:07.385Z,2.97
2018-08-08T20:22:34.633Z,2.27
2018-08-08T20:25:02.027Z,3.50
2018-08-08T20:27:29.344Z,3.40
2018-08-08T20:29:56.616Z,2.30
2018-08-08T20:32:23.872Z,4.07
2018-08-08T20:34:51.104Z,3.67
2018-08-08T20:37:18.385Z,4.43
2018-08-08T20:39:45.614Z,4.20
2018-08-08T20:42:13.003Z,2.57
2018-08-08T20:44:53.090Z,3.53
2018-08-08T20:47:20.312Z,10.10
2018-08-08T20:49:47.748Z,3.60
2018-08-08T20:52:15.069Z,3.67
2018-08-08T20:54:42.449Z,3.07
2018-08-08T20:57:10.235Z,3.03
2018-08-08T20:59:37.464Z,3.40
2018-08-08T21:02:04.724Z,4.90
2018-08-08T21:04:31.957Z,3.20
2018-08-08T21:06:59.191Z,2.90
2018-08-08T21:09:28.912Z,4.50
2018-08-08T21:11:56.126Z,5.50
2018-08-08T21:14:23.395Z,5.57
2018-08-08T21:16:50.745Z,5.73
2018-08-08T21:19:18.135Z,4.00
2018-08-08T21:21:45.360Z,8.30
2018-08-08T21:24:12.640Z,4.57
2018-08-08T21:26:40.090Z,2.80
2018-08-08T21:29:07.416Z,3.77
2018-08-08T21:31:35.145Z,3.53
2018-08-08T21:34:04.810Z,2.13
2018-08-08T21:36:32.149Z,2.13
2018-08-08T21:38:59.401Z,1.90
2018-08-08T21:41:26.664Z,2.80
2018-08-08T21:43:53.904Z,4.40
2018-08-08T21:46:21.172Z,2.20
2018-08-08T21:48:48.413Z,3.60
2018-08-08T21:51:15.655Z,2.67
2018-08-08T21:53:48.565Z,2.90
2018-08-08T21:56:21.531Z,3.93
2018-08-08T21:58:54.391Z,1.93
2018-08-08T22:01:27.314Z,2.93
2018-08-08T22:04:00.374Z,7.00
2018-08-08T22:06:33.372Z,5.00
2018-08-08T22:09:06.240Z,2.90
2018-08-08T22:11:39.036Z,3.00
2018-08-08T22:14:11.773Z,2.50
2018-08-08T22:16:44.608Z,3.20
2018-08-08T22:19:18.821Z,3.47
2018-08-08T22:21:46.380Z,2.07
2018-08-08T22:24:13.820Z,4.93
2018-08-08T22:26:41.095Z,2.23
2018-08-08T22:29:08.430Z,3.40
2018-08-08T22:31:35.724Z,3.93
2018-08-08T22:34:03.036Z,5.03
2018-08-08T22:36:30.301Z,4.27
2018-08-08T22:38:57.536Z,2.80
2018-08-08T22:41:24.802Z,2.10
2018-08-08T22:43:52.044Z,4.60
2018-08-08T22:46:19.315Z,4.83
2018-08-08T22:48:46.560Z,2.47
2018-08-08T22:51:13.791Z,4.30
2018-08-08T22:53:41.051Z,3.00
2018-08-08T22:56:08.312Z,2.77
2018-08-08T22:58:35.536Z,4.20
2018-08-08T23:01:02.788Z,2.60
2018-08-08T23:03:30.063Z,4.53
2018-08-08T23:05:57.339Z,4.00
2018-08-08T23:08:24.557Z,3.63
2018-08-08T23:10:51.840Z,4.30
2018-08-08T23:13:19.080Z,2.97
2018-08-08T23:15:46.299Z,3.30
2018-08-08T23:18:13.592Z,2.23
2018-08-08T23:20:40.804Z,2.63
2018-08-08T23:23:08.096Z,5.10
2018-08-08T23:25:35.324Z,2.60
2018-08-08T23:28:02.572Z,3.33
2018-08-08T23:30:29.828Z,2.60
2018-08-08T23:32:57.082Z,3.83
2018-08-08T23:35:24.311Z,2.70
2018-08-08T23:37:51.598Z,2.70
2018-08-08T23:40:18.820Z,2.80
2018-08-08T23:42:46.071Z,2.43
2018-08-08T23:45:13.359Z,2.83
2018-08-08T23:47:40.581Z,2.23
2018-08-08T23:50:08.887Z,2.57
2018-08-08T23:52:36.160Z,4.13
2018-08-08T23:55:03.464Z,4.20
2018-08-08T23:57:30.685Z,3.10
2018-08-08T23:59:57.975Z,3.93
